EST,Max TemperatureF,Mean TemperatureF,Min TemperatureF,Max Dew PointF,MeanDew PointF,Min DewpointF,Max Humidity, Mean Humidity, Min Humidity, Max Sea Level PressureIn, Mean Sea Level PressureIn, Min Sea Level PressureIn, Max VisibilityMiles, Mean VisibilityMiles, Min VisibilityMiles, Max Wind SpeedMPH, Mean Wind SpeedMPH, Max Gust SpeedMPH,PrecipitationIn, CloudCover, Events, WindDirDegrees
2013-11-1,62,58,55,59,56,52,100,91,72,29.80,29.52,29.38,10,7,3,25,15,39,0.50,5,,206
2013-11-2,62,50,37,52,44,36,100,79,48,29.74,29.63,29.55,10,9,1,13,5,,0.00,2,,251
2013-11-3,46,39,32,39,23,16,93,56,34,30.38,30.08,29.76,10,10,10,14,8,21,0.05,5,,349
2013-11-4,39,32,24,21,16,14,86,53,36,30.72,30.61,30.41,10,10,9,13,5,18,0.00,0,,341
2013-11-5,46,34,23,34,28,19,100,77,50,30.72,30.64,30.51,10,10,10,12,4,17,0.00,2,,219
2013-11-6,53,42,30,50,41,28,100,86,71,30.50,30.30,30.00,10,10,8,16,6,29,0.00,3,,211
2013-11-7,57,46,33,55,48,30,100,89,65,29.99,29.76,29.63,10,10,5,20,13,31,0.14,7,,244
2013-11-8,44,38,33,30,25,21,87,58,39,29.95,29.83,29.75,10,10,10,22,8,30,0.00,4,,273
2013-11-9,44,34,24,27,21,18,93,56,36,30.11,30.06,29.95,10,10,10,21,11,29,0.00,1,,279
2013-11-10,44,37,30,43,37,25,100,89,75,30.08,29.82,29.71,10,9,2,13,5,16,0.11,6,,250
2013-11-11,46,40,35,36,31,27,100,69,49,29.98,29.90,29.73,10,10,6,20,9,24,0.00,4,,264
2013-11-12,46,35,24,30,20,12,87,57,47,30.08,29.97,29.82,10,10,5,18,11,31,0.00,4,,280
2013-11-13,33,27,21,16,11,9,68,51,35,30.20,30.15,30.08,10,10,10,18,7,22,0.00,0,,282
2013-11-14,46,35,24,28,23,16,100,65,42,30.10,30.03,29.98,10,10,10,14,6,21,0.00,0,,255
2013-11-15,51,38,24,36,28,23,100,77,41,30.18,30.13,30.08,10,10,10,12,3,,0.00,0,,243
2013-11-16,51,40,28,43,36,27,100,87,66,30.35,30.28,30.18,10,8,1,8,3,,0.00,1,,30
2013-11-17,51,42,33,52,44,34,100,93,82,30.37,30.25,29.96,10,9,2,16,5,23,0.01,8,,117
2013-11-18,59,49,39,55,49,37,100,91,67,29.95,29.60,29.49,10,6,0,21,11,33,0.32,5,,191
2013-11-19,42,36,30,39,21,16,100,57,41,30.17,29.85,29.56,10,10,2,23,9,33,0.00,4,,282
2013-11-20,37,30,24,16,10,7,69,42,28,30.63,30.45,30.17,10,10,10,14,8,22,0.00,0,,313
2013-11-21,46,34,21,27,17,9,86,58,22,30.63,30.52,30.34,10,10,10,12,4,,0.00,0,,261
2013-11-22,41,34,26,32,25,19,93,70,42,30.33,30.09,29.77,10,10,9,8,4,,0.00,6,,270
2013-11-23,39,32,24,37,22,12,100,64,33,29.77,29.71,29.65,10,10,6,28,11,38,0.01,2,,275
2013-11-24,28,24,19,19,4,0,69,46,36,29.93,29.72,29.63,10,10,10,29,17,40,0.00,2,,285
2013-11-25,28,22,15,16,2,-2,74,45,29,30.32,30.19,29.94,10,10,10,28,17,37,0.00,0,,277
2013-11-26,37,30,24,34,26,14,100,82,56,30.31,30.27,30.18,10,8,1,15,5,22,0.01,6,,255
2013-11-27,55,45,35,55,49,34,100,97,87,30.17,29.52,29.12,10,6,1,29,14,41,2.23,8,,162
2013-11-28,39,30,19,37,16,3,93,59,34,30.37,29.89,29.25,10,10,8,26,14,34,0.00,3,,275
2013-11-29,26,20,15,10,6,1,73,55,36,30.73,30.54,30.38,10,10,10,15,7,17,0.00,0,,296
2013-11-30,35,24,12,28,12,3,92,64,37,30.81,30.69,30.44,10,10,9,16,4,29,0.00,2,,250